Time;durP1;ratioP1;P1;durP2;ratioP2;P2;SDS_P1;SDS_P2;PMS_P1;PMS_P2;Temp;Humidity;BMP_temperature;BMP_pressure;BME280_temperature;BME280_humidity;BME280_pressure;Samples;Min_cycle;Max_cycle;Signal;HPM_P1;HPM_P2
2021/10/08 00:00:52;;;;;;;2.67;2.22;;;;;;;7.24;100.00;96895.41;5055358;28;20846;-78
2021/10/08 00:03:18;;;;;;;3.08;2.50;;;;;;;7.30;100.00;96896.09;5055422;28;24447;-78
2021/10/08 00:05:44;;;;;;;3.65;2.60;;;;;;;7.30;100.00;96899.50;5055008;28;24427;-78
2021/10/08 00:08:13;;;;;;;4.03;2.80;;;;;;;7.31;100.00;96893.47;5037618;28;24428;-78
2021/10/08 00:10:40;;;;;;;3.92;2.90;;;;;;;7.34;100.00;96902.81;5034009;28;24999;-78
2021/10/08 00:13:06;;;;;;;3.70;2.80;;;;;;;7.31;100.00;96883.19;5034903;28;24419;-78
2021/10/08 00:15:34;;;;;;;2.97;2.55;;;;;;;7.35;100.00;96887.34;5034721;28;24427;-78
2021/10/08 00:18:01;;;;;;;3.20;2.90;;;;;;;7.40;100.00;96887.19;5034978;28;24435;-79
2021/10/08 00:20:27;;;;;;;3.53;2.75;;;;;;;7.46;100.00;96884.41;5034775;28;24431;-78
2021/10/08 00:22:54;;;;;;;5.07;2.70;;;;;;;7.41;100.00;96888.84;5036265;28;24426;-78
2021/10/08 00:25:20;;;;;;;3.80;2.67;;;;;;;7.32;100.00;96882.28;5036432;28;24427;-79
2021/10/08 00:27:46;;;;;;;3.08;2.40;;;;;;;7.30;100.00;96886.63;5035441;28;24439;-79
2021/10/08 00:30:13;;;;;;;3.35;2.58;;;;;;;7.26;100.00;96885.03;5034777;28;24435;-78
2021/10/08 00:32:41;;;;;;;2.87;2.60;;;;;;;7.29;100.00;96882.38;5034803;28;24438;-78
2021/10/08 00:35:08;;;;;;;3.33;2.80;;;;;;;7.29;100.00;96882.38;5035341;28;24428;-78
2021/10/08 00:37:34;;;;;;;3.70;2.88;;;;;;;7.30;100.00;96886.63;5036046;28;24428;-78
2021/10/08 00:40:01;;;;;;;3.03;2.73;;;;;;;7.33;100.00;96878.78;5036443;28;24794;-78
2021/10/08 00:42:28;;;;;;;2.80;2.60;;;;;;;7.33;100.00;96877.97;5034246;28;24455;-78
2021/10/08 00:44:54;;;;;;;4.03;2.78;;;;;;;7.37;100.00;96874.38;5034895;28;20772;-78
2021/10/08 00:47:21;;;;;;;3.00;2.70;;;;;;;7.38;100.00;96879.50;5035317;28;24440;-79
2021/10/08 00:49:49;;;;;;;3.13;2.80;;;;;;;7.37;100.00;96882.13;5034602;28;24424;-78
2021/10/08 00:52:15;;;;;;;3.47;2.90;;;;;;;7.34;100.00;96880.50;5031679;28;24450;-78
2021/10/08 00:54:42;;;;;;;4.90;3.17;;;;;;;7.32;100.00;96881.44;5030942;28;24478;-77
2021/10/08 00:57:08;;;;;;;3.08;2.70;;;;;;;7.27;100.00;96871.28;5031348;28;24428;-77
2021/10/08 00:59:35;;;;;;;3.67;2.92;;;;;;;7.26;100.00;96869.56;5032089;28;24416;-77
2021/10/08 01:02:02;;;;;;;3.20;2.72;;;;;;;7.27;100.00;96871.28;5031891;28;24463;-78
2021/10/08 01:04:29;;;;;;;3.85;2.92;;;;;;;7.21;100.00;96869.72;5031152;28;24518;-78
2021/10/08 01:06:58;;;;;;;3.75;3.15;;;;;;;7.19;100.00;96873.25;5031435;28;24435;-77
2021/10/08 01:09:24;;;;;;;3.10;2.80;;;;;;;7.19;100.00;96870.66;5031641;28;24515;-77
2021/10/08 01:11:51;;;;;;;2.90;2.60;;;;;;;7.16;100.00;96863.06;5031218;28;24447;-77
2021/10/08 01:14:17;;;;;;;3.63;2.80;;;;;;;7.15;100.00;96863.94;5031292;28;24451;-77
2021/10/08 01:16:44;;;;;;;4.15;2.60;;;;;;;7.16;100.00;96853.59;5031214;28;24428;-77
2021/10/08 01:19:11;;;;;;;3.13;2.65;;;;;;;7.16;100.00;96850.16;5031215;28;24420;-77
2021/10/08 01:21:38;;;;;;;3.08;2.53;;;;;;;7.14;100.00;96850.19;5031201;28;24844;-77
2021/10/08 01:24:05;;;;;;;3.80;2.83;;;;;;;7.07;100.00;96851.28;5035026;28;24434;-77
2021/10/08 01:26:32;;;;;;;4.20;2.75;;;;;;;6.95;100.00;96857.66;5034965;28;24450;-77
2021/10/08 01:28:58;;;;;;;5.53;2.85;;;;;;;6.94;100.00;96856.00;5035257;28;24825;-77
2021/10/08 01:31:25;;;;;;;3.53;2.90;;;;;;;6.95;100.00;96855.09;5035586;28;24988;-77
2021/10/08 01:33:51;;;;;;;3.13;2.53;;;;;;;6.91;100.00;96850.09;5035569;28;24474;-78
2021/10/08 01:36:18;;;;;;;3.70;2.70;;;;;;;6.85;100.00;96858.84;5035578;28;24435;-77
2021/10/08 01:38:46;;;;;;;3.33;3.03;;;;;;;6.84;100.00;96854.59;5034763;28;24439;-77
2021/10/08 01:41:12;;;;;;;2.95;2.67;;;;;;;6.98;100.00;96855.00;5035266;28;25016;-78
2021/10/08 01:43:39;;;;;;;5.20;3.00;;;;;;;6.94;100.00;96848.28;5035187;28;24431;-78
2021/10/08 01:46:05;;;;;;;3.40;2.35;;;;;;;6.82;100.00;96848.63;5034521;28;24420;-77
2021/10/08 01:48:32;;;;;;;2.63;2.42;;;;;;;6.83;100.00;96849.50;5034593;28;24462;-78
2021/10/08 01:50:58;;;;;;;2.25;1.90;;;;;;;6.87;100.00;96853.66;5034570;28;24455;-77
2021/10/08 01:53:24;;;;;;;2.10;1.70;;;;;;;6.68;100.00;96849.06;5034838;28;24420;-77
2021/10/08 01:55:52;;;;;;;3.15;1.67;;;;;;;6.56;100.00;96852.00;5034776;28;24497;-78
2021/10/08 01:58:19;;;;;;;2.40;1.50;;;;;;;6.49;100.00;96850.50;5034545;28;24511;-78
2021/10/08 02:00:45;;;;;;;2.43;1.53;;;;;;;6.38;100.00;96853.41;5034211;28;24985;-78
2021/10/08 02:03:12;;;;;;;3.60;1.70;;;;;;;6.43;100.00;96853.25;5034704;28;24462;-77
2021/10/08 02:05:38;;;;;;;1.73;1.60;;;;;;;6.36;100.00;96850.00;5033860;28;24444;-78
2021/10/08 02:08:05;;;;;;;2.25;1.60;;;;;;;6.21;100.00;96850.44;5034296;28;24481;-78
2021/10/08 02:10:31;;;;;;;2.10;1.60;;;;;;;6.21;100.00;96851.28;5035403;28;24496;-78
2021/10/08 02:12:59;;;;;;;2.30;1.65;;;;;;;6.06;100.00;96844.84;5035695;28;24420;-78
2021/10/08 02:15:26;;;;;;;2.53;1.65;;;;;;;5.99;100.00;96845.91;5035874;28;24435;-78
2021/10/08 02:17:52;;;;;;;2.80;1.90;;;;;;;5.99;100.00;96847.63;5035796;28;24984;-78
2021/10/08 02:20:19;;;;;;;2.00;1.77;;;;;;;5.93;100.00;96842.63;5038477;28;24424;-78
2021/10/08 02:22:47;;;;;;;1.77;1.52;;;;;;;5.76;100.00;96846.50;5038135;28;24423;-78
2021/10/08 02:25:13;;;;;;;1.77;1.58;;;;;;;5.72;100.00;96838.91;5036949;28;24593;-79
2021/10/08 02:27:40;;;;;;;2.92;1.77;;;;;;;5.69;100.00;96844.13;5038422;28;24424;-78
2021/10/08 02:30:09;;;;;;;3.60;1.65;;;;;;;5.67;100.00;96843.31;5036975;28;24430;-78
2021/10/08 02:32:36;;;;;;;2.13;1.52;;;;;;;5.67;100.00;96840.72;5035633;28;24969;-78
2021/10/08 02:35:02;;;;;;;1.65;1.35;;;;;;;5.75;100.00;96844.81;5034876;28;24447;-78
2021/10/08 02:37:29;;;;;;;3.33;1.55;;;;;;;5.78;100.00;96839.59;5037213;28;24435;-78
2021/10/08 02:39:55;;;;;;;2.60;1.88;;;;;;;5.83;100.00;96842.03;5036522;28;24829;-78
2021/10/08 02:42:21;;;;;;;2.80;2.10;;;;;;;5.71;100.00;96839.75;5035948;28;24781;-78
2021/10/08 02:44:48;;;;;;;2.50;1.85;;;;;;;5.75;100.00;96843.97;5035418;28;24821;-78
2021/10/08 02:47:16;;;;;;;2.20;1.90;;;;;;;5.76;100.00;96837.94;5035581;28;24853;-78
2021/10/08 02:49:42;;;;;;;2.83;1.65;;;;;;;5.74;100.00;96835.38;5034480;28;25444;-78
2021/10/08 02:52:09;;;;;;;3.17;1.77;;;;;;;5.80;100.00;96842.09;5034188;28;24447;-78
2021/10/08 02:54:35;;;;;;;2.13;1.92;;;;;;;5.71;100.00;96843.22;5034360;28;24478;-78
2021/10/08 02:57:02;;;;;;;5.70;2.00;;;;;;;5.82;100.00;96845.47;5035371;28;24988;-78
2021/10/08 02:59:28;;;;;;;3.70;1.98;;;;;;;5.50;100.00;96849.75;5034941;28;24778;-78
2021/10/08 03:01:55;;;;;;;2.30;1.83;;;;;;;5.49;100.00;96848.06;5035163;28;24455;-77
2021/10/08 03:04:23;;;;;;;4.47;1.80;;;;;;;5.37;100.00;96850.06;5034428;28;25239;-78
2021/10/08 03:06:49;;;;;;;1.95;1.80;;;;;;;5.26;100.00;96845.19;5034254;28;24427;-78
2021/10/08 03:09:15;;;;;;;2.72;2.05;;;;;;;5.20;100.00;96845.38;5034143;28;25180;-78
2021/10/08 03:11:42;;;;;;;2.13;1.83;;;;;;;5.28;100.00;96844.28;5034277;28;24501;-78
2021/10/08 03:14:08;;;;;;;4.97;4.32;;;;;;;5.08;100.00;96846.50;5033545;28;24991;-78
2021/10/08 03:16:35;;;;;;;2.80;2.08;;;;;;;5.28;100.00;96844.28;5032958;28;24954;-78
2021/10/08 03:19:01;;;;;;;4.10;3.42;;;;;;;5.18;100.00;96842.81;5033758;28;24810;-78
2021/10/08 03:21:29;;;;;;;3.40;3.10;;;;;;;5.09;100.00;96843.06;5033033;28;24442;-78
2021/10/08 03:23:56;;;;;;;2.78;2.53;;;;;;;5.17;100.00;96838.56;5033209;28;24795;-78
2021/10/08 03:26:22;;;;;;;3.63;2.00;;;;;;;5.24;100.00;96839.28;5032864;28;24431;-77
2021/10/08 03:28:49;;;;;;;1.55;1.45;;;;;;;5.22;100.00;96834.16;5032604;28;24427;-77
2021/10/08 03:31:15;;;;;;;1.90;1.73;;;;;;;5.20;100.00;96837.66;5032995;28;24807;-78
2021/10/08 03:33:42;;;;;;;2.38;1.83;;;;;;;5.28;100.00;96846.88;5032877;28;24431;-77
2021/10/08 03:36:14;;;;;;;4.22;1.73;;;;;;;5.29;100.00;96843.41;5032127;28;24972;-77
2021/10/08 03:38:41;;;;;;;2.05;1.85;;;;;;;5.37;100.00;96840.63;5032744;28;24423;-77
2021/10/08 03:41:13;;;;;;;15.85;1.60;;;;;;;5.44;100.00;96855.03;5032967;28;24427;-77
2021/10/08 03:43:41;;;;;;;3.60;1.63;;;;;;;5.47;100.00;96846.41;5032698;28;24527;-78
2021/10/08 03:46:08;;;;;;;1.87;1.60;;;;;;;5.47;100.00;96842.09;5032435;28;24548;-78
2021/10/08 03:49:00;;;;;;;2.75;1.80;;;;;;;5.46;100.00;96848.13;5032056;28;24432;-77
2021/10/08 03:51:27;;;;;;;4.63;1.83;;;;;;;5.50;100.00;96847.16;5032079;28;24444;-78
2021/10/08 03:53:55;;;;;;;1.65;1.55;;;;;;;5.45;100.00;96846.47;5033415;28;24416;-77
2021/10/08 03:56:21;;;;;;;3.28;1.52;;;;;;;5.39;100.00;96853.47;5032182;28;24555;-77
2021/10/08 03:58:48;;;;;;;2.33;1.70;;;;;;;5.36;100.00;96850.97;5032144;28;24419;-78
2021/10/08 04:01:14;;;;;;;2.30;1.88;;;;;;;5.46;100.00;96858.41;5032306;28;24473;-78
2021/10/08 04:03:41;;;;;;;5.63;1.92;;;;;;;5.34;100.00;96859.56;5032310;28;24427;-78
2021/10/08 04:06:07;;;;;;;3.30;1.60;;;;;;;5.28;100.00;96854.56;5032120;28;24442;-78
2021/10/08 04:08:34;;;;;;;2.28;1.75;;;;;;;5.32;100.00;96856.19;5032141;28;24432;-78
2021/10/08 04:11:02;;;;;;;2.67;1.60;;;;;;;5.33;100.00;96864.72;5032479;28;24420;-77
2021/10/08 04:13:28;;;;;;;2.73;1.70;;;;;;;5.11;100.00;96859.25;5032267;28;24567;-77
2021/10/08 04:15:55;;;;;;;2.10;1.90;;;;;;;5.25;100.00;96869.22;5031971;28;24439;-78
2021/10/08 04:18:21;;;;;;;3.67;1.67;;;;;;;5.18;100.00;96862.53;5032964;28;24786;-78
2021/10/08 04:20:47;;;;;;;1.73;1.63;;;;;;;5.07;100.00;96871.31;5033231;28;25043;-78
2021/10/08 04:23:14;;;;;;;1.40;1.30;;;;;;;5.06;100.00;96868.81;5033274;28;24427;-78
2021/10/08 04:25:40;;;;;;;2.30;2.10;;;;;;;5.05;100.00;96878.25;5031807;28;24416;-77
2021/10/08 04:28:08;;;;;;;3.33;2.47;;;;;;;4.99;100.00;96875.78;5031780;28;24447;-78
2021/10/08 04:30:35;;;;;;;3.47;1.98;;;;;;;5.06;100.00;96867.06;5031998;28;24423;-77
2021/10/08 04:33:02;;;;;;;3.05;2.05;;;;;;;5.10;100.00;96857.56;5031714;28;24861;-79
2021/10/08 04:35:29;;;;;;;3.67;3.37;;;;;;;5.20;100.00;96864.19;5033428;28;24431;-78
2021/10/08 04:37:55;;;;;;;5.90;3.50;;;;;;;5.20;100.00;96865.91;5034410;28;24973;-78
2021/10/08 04:40:22;;;;;;;5.10;3.40;;;;;;;5.19;100.00;96859.94;5034636;28;24493;-79
2021/10/08 04:42:48;;;;;;;3.37;2.87;;;;;;;5.22;100.00;96864.13;5034331;28;24898;-79
2021/10/08 04:45:16;;;;;;;3.07;2.60;;;;;;;5.27;100.00;96870.88;5033781;28;24419;-78
2021/10/08 04:47:43;;;;;;;2.75;2.15;;;;;;;5.30;100.00;96857.09;5033555;28;24945;-78
2021/10/08 04:50:09;;;;;;;7.38;6.15;;;;;;;5.28;100.00;96848.59;5033654;28;24431;-79
2021/10/08 04:52:36;;;;;;;7.35;5.25;;;;;;;5.38;100.00;96852.63;5034300;28;24455;-78
2021/10/08 04:55:02;;;;;;;3.92;3.22;;;;;;;5.40;100.00;96858.56;5033504;28;24424;-78
2021/10/08 04:57:29;;;;;;;3.35;3.05;;;;;;;5.31;100.00;96861.38;5033326;28;24435;-79
2021/10/08 04:59:55;;;;;;;3.72;3.42;;;;;;;5.37;100.00;96860.34;5033359;28;24420;-79
2021/10/08 05:02:23;;;;;;;6.45;4.88;;;;;;;5.42;100.00;96856.81;5033742;28;24477;-78
2021/10/08 05:04:49;;;;;;;7.75;5.70;;;;;;;5.53;100.00;96861.69;5033160;28;24493;-78
2021/10/08 05:07:16;;;;;;;5.85;5.20;;;;;;;5.67;100.00;96861.28;5034392;28;24786;-79
2021/10/08 05:09:42;;;;;;;4.20;3.80;;;;;;;5.68;100.00;96863.00;5033587;28;24416;-78
2021/10/08 05:12:09;;;;;;;8.63;5.87;;;;;;;5.44;100.00;96855.03;5033734;28;24452;-78
2021/10/08 05:14:35;;;;;;;5.22;4.10;;;;;;;5.48;100.00;96853.22;5033887;28;24420;-79
2021/10/08 05:17:02;;;;;;;7.60;4.60;;;;;;;5.47;100.00;96854.09;5033663;28;24435;-78
2021/10/08 05:19:29;;;;;;;3.45;2.97;;;;;;;5.47;100.00;96852.38;5033561;28;24423;-79
2021/10/08 05:21:56;;;;;;;4.35;3.22;;;;;;;5.20;100.00;96851.34;5046236;28;24435;-78
2021/10/08 05:24:23;;;;;;;3.90;2.97;;;;;;;5.04;100.00;96862.84;5054661;28;24454;-79
2021/10/08 05:26:49;;;;;;;4.40;3.08;;;;;;;5.08;100.00;96861.94;5055918;28;24797;-79
2021/10/08 05:29:16;;;;;;;4.43;3.28;;;;;;;5.01;100.00;96856.09;5048677;28;24535;-79
2021/10/08 05:31:42;;;;;;;3.92;3.45;;;;;;;4.92;100.00;96852.88;5049991;28;24443;-79
2021/10/08 05:34:10;;;;;;;4.10;3.50;;;;;;;4.91;100.00;96852.03;5052966;28;24832;-79
2021/10/08 05:36:38;;;;;;;6.00;4.35;;;;;;;4.92;100.00;96851.16;5052372;28;24485;-79
2021/10/08 05:39:05;;;;;;;6.25;5.47;;;;;;;4.98;100.00;96853.56;5048726;28;24450;-79
2021/10/08 05:41:32;;;;;;;6.97;4.72;;;;;;;5.09;100.00;96861.88;5038367;28;24965;-78
2021/10/08 05:43:58;;;;;;;4.25;3.85;;;;;;;5.17;100.00;96858.28;5051971;28;24458;-79
2021/10/08 05:46:25;;;;;;;4.30;3.72;;;;;;;5.22;100.00;96864.13;5051072;28;24995;-78
2021/10/08 05:48:51;;;;;;;10.02;4.20;;;;;;;5.25;100.00;96870.03;5052773;28;24499;-78
2021/10/08 05:51:18;;;;;;;4.60;3.55;;;;;;;5.29;100.00;96865.69;5053125;28;24439;-78
2021/10/08 05:53:45;;;;;;;4.32;3.92;;;;;;;5.39;100.00;96861.16;5053350;28;24447;-78
2021/10/08 05:56:12;;;;;;;6.90;3.97;;;;;;;5.48;100.00;96866.06;5052973;28;24786;-78
2021/10/08 05:58:38;;;;;;;4.47;3.60;;;;;;;5.46;100.00;96857.56;5051551;28;24550;-78
2021/10/08 06:01:04;;;;;;;4.72;4.03;;;;;;;5.35;100.00;96862.97;5049220;28;24427;-79
2021/10/08 06:03:31;;;;;;;6.93;3.28;;;;;;;5.46;100.00;96858.41;5052873;28;24785;-78
2021/10/08 06:05:57;;;;;;;4.18;3.50;;;;;;;5.49;100.00;96872.91;5052810;28;24777;-78
2021/10/08 06:08:24;;;;;;;3.90;3.47;;;;;;;5.77;100.00;96862.75;5052475;28;24442;-78
2021/10/08 06:10:52;;;;;;;3.90;3.50;;;;;;;5.77;100.00;96861.03;5055753;28;24434;-78
2021/10/08 06:13:18;;;;;;;9.50;7.65;;;;;;;5.85;100.00;96860.81;5056424;28;24514;-78
2021/10/08 06:15:44;;;;;;;11.35;10.15;;;;;;;5.94;100.00;96867.50;5056288;28;24968;-78
2021/10/08 06:18:11;;;;;;;5.03;4.10;;;;;;;6.11;100.00;96878.13;5056297;28;24435;-78
2021/10/08 06:20:37;;;;;;;4.70;4.30;;;;;;;6.14;100.00;96878.06;5055191;28;24430;-78
2021/10/08 06:23:04;;;;;;;6.25;4.35;;;;;;;6.21;100.00;96878.75;5054693;28;24836;-79
2021/10/08 06:25:31;;;;;;;7.20;5.45;;;;;;;6.35;100.00;96878.38;5047398;28;24435;-78
2021/10/08 06:27:58;;;;;;;10.98;9.57;;;;;;;6.39;100.00;96878.22;5055520;28;24458;-78
2021/10/08 06:30:25;;;;;;;11.57;10.50;;;;;;;6.39;100.00;96874.81;5054643;28;24816;-79
2021/10/08 06:32:52;;;;;;;13.85;10.90;;;;;;;6.37;100.00;96879.16;5054734;28;24443;-78
2021/10/08 06:35:19;;;;;;;12.40;11.13;;;;;;;6.39;100.00;96883.38;5054031;28;24423;-78
2021/10/08 06:37:45;;;;;;;12.45;11.25;;;;;;;6.51;100.00;96888.16;5054107;28;24829;-78
2021/10/08 06:40:13;;;;;;;11.73;10.50;;;;;;;6.75;100.00;96889.19;5054136;28;24430;-78
2021/10/08 06:42:39;;;;;;;10.85;9.85;;;;;;;7.03;100.00;96889.19;5059170;28;24423;-77
2021/10/08 06:45:08;;;;;;;8.52;7.80;;;;;;;7.31;100.00;96884.91;5069485;28;24430;-78
2021/10/08 06:47:35;;;;;;;6.97;6.30;;;;;;;7.44;100.00;96888.75;5069584;28;24430;-78
2021/10/08 06:50:02;;;;;;;6.65;4.90;;;;;;;7.49;100.00;96887.72;5069517;28;24646;-78
2021/10/08 06:52:28;;;;;;;8.52;5.10;;;;;;;7.62;100.00;96880.44;5069314;28;24450;-78
2021/10/08 06:54:55;;;;;;;4.97;4.50;;;;;;;7.85;100.00;96889.97;5068677;28;24411;-79
2021/10/08 06:57:21;;;;;;;8.90;6.93;;;;;;;7.95;100.00;96891.34;5068910;28;24420;-79
2021/10/08 06:59:47;;;;;;;8.10;7.30;;;;;;;8.18;100.00;96875.03;5065173;28;24439;-74
2021/10/08 07:02:16;;;;;;;12.95;9.98;;;;;;;7.95;100.00;96881.03;5057736;28;24415;-78
2021/10/08 07:04:42;;;;;;;10.90;9.60;;;;;;;8.12;100.00;96879.56;5056894;28;24981;-76
2021/10/08 07:07:08;;;;;;;10.83;9.77;;;;;;;8.31;100.00;96882.38;5050473;28;25011;-77
2021/10/08 07:09:35;;;;;;;9.80;8.80;;;;;;;8.38;100.00;96886.41;5052785;28;24434;-77
2021/10/08 07:12:01;;;;;;;10.43;9.07;;;;;;;8.44;100.00;96878.47;5052695;28;24438;-77
2021/10/08 07:14:28;;;;;;;10.60;9.13;;;;;;;8.39;100.00;96883.81;5052456;28;24512;-77
2021/10/08 07:16:55;;;;;;;11.25;8.95;;;;;;;8.60;100.00;96883.91;5053042;28;20767;-77
2021/10/08 07:19:24;;;;;;;10.60;9.30;;;;;;;8.83;100.00;96880.47;5052661;28;24518;-77
2021/10/08 07:21:51;;;;;;;11.48;8.90;;;;;;;8.99;100.00;96888.47;5051688;28;24973;-77
2021/10/08 07:24:18;;;;;;;11.43;9.10;;;;;;;9.08;100.00;96881.19;5046415;28;24435;-77
2021/10/08 07:26:45;;;;;;;9.88;8.90;;;;;;;9.20;100.00;96888.47;5052355;28;20798;-77
2021/10/08 07:29:11;;;;;;;9.07;7.97;;;;;;;9.42;100.00;96883.28;5053022;28;24905;-77
2021/10/08 07:31:38;;;;;;;8.32;7.43;;;;;;;9.74;100.00;96886.28;5053671;28;24432;-77
2021/10/08 07:34:04;;;;;;;12.33;9.53;;;;;;;10.32;100.00;96883.84;5050802;28;24456;-76
2021/10/08 07:36:32;;;;;;;11.57;8.93;;;;;;;10.31;100.00;96884.75;5033720;28;20769;-77
2021/10/08 07:38:58;;;;;;;10.27;7.72;;;;;;;10.46;100.00;96884.97;5032948;28;20802;-77
2021/10/08 07:41:25;;;;;;;12.73;7.72;;;;;;;10.53;100.00;96884.66;5033532;28;24428;-77
2021/10/08 07:43:51;;;;;;;8.13;6.80;;;;;;;10.40;100.00;96878.31;5033036;28;24481;-77
2021/10/08 07:46:18;;;;;;;8.63;7.47;;;;;;;10.63;100.00;96875.53;5032368;28;24423;-77
2021/10/08 07:48:45;;;;;;;9.02;8.13;;;;;;;10.99;100.00;96879.09;5032467;28;24420;-77
2021/10/08 07:51:11;;;;;;;11.67;7.40;;;;;;;11.15;100.00;96888.66;5031877;28;24968;-76
2021/10/08 07:53:39;;;;;;;8.77;7.20;;;;;;;10.86;100.00;96884.00;5031703;28;24452;-77
2021/10/08 07:56:06;;;;;;;10.70;7.57;;;;;;;11.00;100.00;96889.38;5031878;28;24428;-77
2021/10/08 07:58:32;;;;;;;9.20;8.10;;;;;;;11.48;100.00;96880.19;5031991;28;24424;-76
2021/10/08 08:01:01;;;;;;;8.73;7.72;;;;;;;11.86;97.79;96887.84;5032008;28;24428;-76
2021/10/08 08:03:28;;;;;;;9.15;7.55;;;;;;;11.79;99.38;96884.72;5032437;28;24427;-78
2021/10/08 08:05:55;;;;;;;10.23;7.18;;;;;;;11.91;97.24;96885.06;5052580;28;24853;-77
2021/10/08 08:08:21;;;;;;;13.70;7.75;;;;;;;12.00;97.55;96882.81;5054742;28;24426;-77
2021/10/08 08:10:49;;;;;;;10.27;7.97;;;;;;;11.97;99.71;96885.56;5056099;28;24795;-78
2021/10/08 08:13:16;;;;;;;11.75;8.40;;;;;;;12.01;97.04;96874.09;5055125;28;20771;-78
2021/10/08 08:15:42;;;;;;;11.88;8.43;;;;;;;12.01;97.51;96876.69;5054165;28;24434;-77
2021/10/08 08:18:09;;;;;;;9.55;8.60;;;;;;;12.05;98.91;96877.38;5054654;28;24534;-77
2021/10/08 08:20:35;;;;;;;13.73;8.68;;;;;;;12.06;98.76;96874.72;5054372;28;24956;-78
2021/10/08 08:23:02;;;;;;;11.45;8.65;;;;;;;11.91;98.76;96870.31;5054696;28;24484;-78
2021/10/08 08:25:28;;;;;;;10.55;7.97;;;;;;;12.18;100.00;96869.81;5054732;28;24497;-78
2021/10/08 08:27:56;;;;;;;11.93;9.43;;;;;;;12.50;100.00;96868.16;5055100;28;24994;-78
2021/10/08 08:30:23;;;;;;;11.43;9.10;;;;;;;12.35;97.41;96868.03;5055737;28;24431;-76
2021/10/08 08:32:49;;;;;;;13.23;9.43;;;;;;;12.15;94.98;96864.78;5056589;28;24466;-77
2021/10/08 08:35:15;;;;;;;10.57;8.85;;;;;;;12.30;95.91;96872.59;5057972;28;24988;-78
2021/10/08 08:37:42;;;;;;;19.15;9.55;;;;;;;12.48;100.00;96865.63;5056206;28;24963;-78
2021/10/08 08:40:10;;;;;;;10.03;8.80;;;;;;;12.33;95.37;96874.22;5056404;28;24422;-78
2021/10/08 08:42:37;;;;;;;13.20;9.90;;;;;;;12.19;96.96;96866.28;5057606;28;20798;-78
2021/10/08 08:45:06;;;;;;;15.63;9.77;;;;;;;12.37;96.50;96867.09;5058290;28;20805;-77
2021/10/08 08:47:34;;;;;;;11.47;10.13;;;;;;;12.54;97.27;96862.69;5057563;28;21277;-76
2021/10/08 08:50:00;;;;;;;10.33;9.27;;;;;;;12.77;96.58;96860.63;5057091;28;20887;-79
2021/10/08 08:52:27;;;;;;;13.55;9.63;;;;;;;12.78;95.29;96855.34;5057265;28;24763;-78
2021/10/08 08:54:54;;;;;;;13.40;9.18;;;;;;;12.99;97.32;96860.31;5055789;28;24450;-78
2021/10/08 08:57:22;;;;;;;12.85;9.60;;;;;;;12.81;94.60;96856.94;5057585;28;24489;-78
2021/10/08 08:59:57;;;;;;;12.45;9.75;;;;;;;12.89;98.31;96854.75;5058335;28;25015;-78
2021/10/08 09:02:26;;;;;;;11.07;9.88;;;;;;;13.05;96.10;96859.94;5058015;28;20672;-78
2021/10/08 09:04:54;;;;;;;11.38;10.10;;;;;;;13.20;95.50;96858.25;5056928;28;24423;-77
2021/10/08 09:07:21;;;;;;;11.25;10.07;;;;;;;13.30;97.32;96851.66;5057310;28;24423;-79
2021/10/08 09:09:48;;;;;;;10.65;9.55;;;;;;;13.53;92.22;96852.94;5057765;28;24493;-78
2021/10/08 09:12:15;;;;;;;10.27;9.18;;;;;;;13.76;92.11;96849.88;5057363;28;24430;-78
2021/10/08 09:14:43;;;;;;;10.82;9.23;;;;;;;13.77;91.04;96856.75;5056289;28;24489;-78
2021/10/08 09:17:13;;;;;;;9.68;8.02;;;;;;;13.65;88.32;96854.03;5055935;28;24435;-79
2021/10/08 09:19:56;;;;;;;11.80;9.63;;;;;;;13.77;89.00;96854.13;5056699;28;24424;-78
2021/10/08 09:22:26;;;;;;;12.52;9.57;;;;;;;13.71;88.38;96844.06;5056253;28;24431;-78
2021/10/08 09:24:54;;;;;;;10.85;8.77;;;;;;;13.68;90.99;96846.88;5056383;28;24469;-78
2021/10/08 09:27:23;;;;;;;11.23;9.47;;;;;;;13.65;93.68;96851.41;5057204;28;24435;-77
2021/10/08 09:29:55;;;;;;;12.93;10.18;;;;;;;13.61;94.59;96849.88;5056483;28;24462;-78
2021/10/08 09:32:23;;;;;;;12.35;9.18;;;;;;;13.68;93.64;96840.81;5056508;28;24981;-77
2021/10/08 09:35:05;;;;;;;11.18;9.52;;;;;;;13.70;94.06;96845.00;5055898;28;24454;-78
2021/10/08 09:37:31;;;;;;;11.70;9.53;;;;;;;13.63;93.01;96851.50;5056102;28;24786;-79
2021/10/08 09:39:58;;;;;;;10.68;9.45;;;;;;;13.57;94.56;96851.81;5055521;28;24477;-78
2021/10/08 09:42:33;;;;;;;13.20;9.13;;;;;;;13.35;93.18;96844.44;5056120;28;24779;-78
2021/10/08 09:44:59;;;;;;;13.13;8.70;;;;;;;13.13;93.13;96849.13;5055003;28;24419;-77
2021/10/08 09:47:26;;;;;;;10.38;8.60;;;;;;;13.11;93.39;96844.00;5054384;28;24439;-77
2021/10/08 09:50:08;;;;;;;9.82;8.82;;;;;;;13.12;92.16;96853.47;5054599;28;24789;-76
2021/10/08 09:52:35;;;;;;;10.32;9.20;;;;;;;12.71;93.69;96853.97;5054694;28;24427;-77
2021/10/08 09:55:05;;;;;;;12.77;9.55;;;;;;;12.76;93.98;96853.75;5054150;28;24497;-77
2021/10/08 09:57:56;;;;;;;10.68;9.68;;;;;;;12.93;92.32;96855.41;5054643;28;24419;-76
2021/10/08 10:00:36;;;;;;;14.35;9.07;;;;;;;12.94;95.80;96860.56;5054589;28;24502;-77
2021/10/08 10:03:04;;;;;;;10.65;9.55;;;;;;;12.92;91.72;96856.34;5054722;28;24451;-77
2021/10/08 10:05:32;;;;;;;11.93;9.90;;;;;;;12.74;92.98;96860.78;5037917;28;25024;-77
2021/10/08 10:07:59;;;;;;;11.27;9.40;;;;;;;12.79;92.65;96856.16;5034476;28;24427;-76
2021/10/08 10:10:25;;;;;;;11.53;9.47;;;;;;;12.72;92.92;96855.69;5034271;28;24431;-77
2021/10/08 10:12:52;;;;;;;10.98;9.52;;;;;;;12.77;96.41;96858.03;5034639;28;24431;-77
2021/10/08 10:15:20;;;;;;;10.40;9.27;;;;;;;12.61;95.51;96863.22;5034350;28;24443;-77
2021/10/08 10:17:48;;;;;;;12.27;9.63;;;;;;;12.65;92.90;96862.13;5035272;28;24953;-77
2021/10/08 10:20:16;;;;;;;11.50;10.10;;;;;;;12.55;95.25;96864.38;5034266;28;24439;-77
2021/10/08 10:22:43;;;;;;;14.05;10.68;;;;;;;12.65;94.87;96859.53;5034117;28;24758;-77
2021/10/08 10:25:12;;;;;;;12.73;10.85;;;;;;;12.62;97.68;96857.09;5033894;28;24778;-77
2021/10/08 10:27:39;;;;;;;13.33;10.77;;;;;;;12.84;99.09;96865.41;5033842;28;20883;-76
2021/10/08 10:30:09;;;;;;;15.40;11.63;;;;;;;12.70;94.98;96857.50;5034315;28;24427;-78
2021/10/08 10:32:36;;;;;;;16.20;10.47;;;;;;;12.80;94.10;96857.88;5034065;28;24430;-78
2021/10/08 10:35:04;;;;;;;13.52;9.65;;;;;;;12.71;95.12;96855.75;5033798;28;24452;-77
2021/10/08 10:37:38;;;;;;;13.30;10.30;;;;;;;12.78;97.37;96857.94;5034462;28;24431;-77
2021/10/08 10:40:20;;;;;;;14.23;10.63;;;;;;;12.83;94.32;96850.75;5034258;28;24519;-76
2021/10/08 10:42:47;;;;;;;14.50;11.05;;;;;;;12.75;96.11;96854.66;5033746;28;24428;-77
2021/10/08 10:45:19;;;;;;;13.82;11.32;;;;;;;12.87;97.66;96847.94;5033730;28;24419;-77
2021/10/08 10:48:08;;;;;;;13.02;10.98;;;;;;;12.84;94.81;96848.97;5035825;28;24531;-78
2021/10/08 10:50:47;;;;;;;15.27;10.47;;;;;;;12.58;93.44;96855.59;5036557;28;24529;-77
2021/10/08 10:53:13;;;;;;;11.63;9.48;;;;;;;12.41;94.92;96846.06;5033289;28;24469;-76
2021/10/08 10:55:41;;;;;;;10.30;9.27;;;;;;;12.49;94.82;96846.50;5032366;28;24423;-76
2021/10/08 10:58:11;;;;;;;16.10;10.05;;;;;;;12.65;94.89;96843.94;5033307;28;24432;-76
2021/10/08 11:00:45;;;;;;;13.43;8.75;;;;;;;12.34;95.97;96837.75;5034228;28;24427;-76
2021/10/08 11:03:17;;;;;;;9.68;8.52;;;;;;;12.40;98.71;96846.16;5035078;28;24423;-77
2021/10/08 11:06:08;;;;;;;11.52;9.20;;;;;;;12.65;94.90;96838.75;5052958;28;24470;-77
2021/10/08 11:08:34;;;;;;;15.45;9.20;;;;;;;12.65;97.63;96841.34;5053690;28;24525;-77
2021/10/08 11:11:18;;;;;;;10.13;9.07;;;;;;;12.75;96.03;96842.50;5053921;28;24450;-77
2021/10/08 11:13:48;;;;;;;12.10;10.02;;;;;;;12.97;99.99;96843.94;5054713;28;21483;-77
2021/10/08 11:16:28;;;;;;;11.90;9.37;;;;;;;12.96;95.32;96840.50;5054982;28;24871;-76
2021/10/08 11:18:56;;;;;;;11.52;8.52;;;;;;;12.99;96.61;96835.13;5054955;28;24478;-77
2021/10/08 11:21:50;;;;;;;9.68;8.63;;;;;;;12.72;95.05;96834.03;5054423;28;24499;-77
2021/10/08 11:24:22;;;;;;;13.43;8.98;;;;;;;12.69;98.03;96829.03;5054363;28;24430;-77
2021/10/08 11:26:57;;;;;;;11.52;8.55;;;;;;;13.02;96.87;96831.53;5054217;28;24419;-77
2021/10/08 11:29:26;;;;;;;12.98;8.95;;;;;;;13.01;95.44;96830.66;5054620;28;24431;-76
2021/10/08 11:31:59;;;;;;;9.95;7.88;;;;;;;12.91;99.03;96836.47;5054281;28;24426;-77